Spring Lake Heights, New Jersey
Current Conditions -  °F | °C
As of 1:35 AM on Wednesday 28 Jan 2015 (Local Time) from KBLM Reporting Station
Clear Clear  
Wind Chill: -17°   Ceiling: Unl
Heat Index: -9°   Visibility: 10mi
Dew Point: -17°   Wind: 15mph
Humidity: 53%   Direction: 330°NNW
Pressure: 29.87"   Gusts: 18mph
Location:  40.1528°N, 74.0364°W
Report Text: KBLM 280635Z AUTO 33013G16KT 270V030 10SM CLR M09/M17 A2987 RMK AO1
Loading
Personal Weather Stations






























Interactive Weather Map New forecast layout! Learn more

10-Day Weather Forecast

Advertisements
Track Severe Weather on mobile